Time,TemperatureF,DewpointF,PressureIn,WindDirection,WindDirectionDegrees,WindSpeedMPH,WindSpeedGustMPH,Humidity,HourlyPrecipIn,Conditions,Clouds,dailyrainin,SoftwareType,DateUTC
2013-01-18 00:03:00,73.6,62.4,30.03,SW,229,0.0,0.0,68,0.00,,SCT120,0.00,VWS V14.01,2013-01-18 04:03:00,
2013-01-18 00:08:00,73.6,62.4,30.03,SW,229,0.0,0.0,68,0.00,,SCT120,0.00,VWS V14.01,2013-01-18 04:08:00,
2013-01-18 00:13:00,73.6,62.8,30.03,SW,229,0.0,0.0,69,0.00,,SCT120,0.00,VWS V14.01,2013-01-18 04:13:00,
2013-01-18 00:18:00,73.4,62.6,30.03,SW,229,0.0,0.0,69,0.00,,SCT120,0.00,VWS V14.01,2013-01-18 04:18:00,
2013-01-18 00:23:00,73.4,62.6,30.03,SW,229,0.0,0.0,69,0.00,,SCT120,0.00,VWS V14.01,2013-01-18 04:23:00,
2013-01-18 00:28:00,73.4,62.6,30.03,SW,229,0.0,0.0,69,0.00,,SCT120,0.00,VWS V14.01,2013-01-18 04:28:00,
2013-01-18 00:33:00,73.4,63.0,30.03,SW,229,0.0,0.0,70,0.00,,SCT120,0.00,VWS V14.01,2013-01-18 04:33:00,
2013-01-18 00:38:00,73.6,63.2,30.03,SW,229,0.0,0.0,70,0.00,,SCT120,0.00,VWS V14.01,2013-01-18 04:38:00,
2013-01-18 00:43:00,73.8,63.4,30.03,SW,229,0.0,0.0,70,0.00,,SCT120,0.00,VWS V14.01,2013-01-18 04:43:00,
2013-01-18 00:48:00,73.6,63.6,30.03,SE,142,0.0,5.8,71,0.00,,SCT120,0.00,VWS V14.01,2013-01-18 04:48:00,
2013-01-18 00:53:00,73.8,64.2,30.03,SE,142,0.0,5.8,72,0.00,,SCT120,0.00,VWS V14.01,2013-01-18 04:53:00,
2013-01-18 00:58:00,73.8,64.2,30.03,SSE,160,2.7,5.8,72,0.00,,SCT120,0.00,VWS V14.01,2013-01-18 04:58:00,
2013-01-18 01:00:00,73.8,64.2,30.03,SSE,160,2.7,2.7,72,0.00,,SCT120,0.00,VWS V14.01,2013-01-18 05:00:00,
2013-01-18 01:01:00,73.8,64.2,30.03,SE,146,0.0,2.7,72,0.00,,SCT120,0.00,VWS V14.01,2013-01-18 05:01:00,
2013-01-18 01:02:00,73.8,64.2,30.03,SE,146,0.0,2.7,72,0.00,,SCT120,0.00,VWS V14.01,2013-01-18 05:02:00,
2013-01-18 01:03:00,73.8,64.2,30.03,ENE,63,0.0,2.7,72,0.00,,SCT120,0.00,VWS V14.01,2013-01-18 05:03:00,
2013-01-18 01:08:00,73.6,64.0,30.03,NE,39,2.2,2.7,72,0.00,,SCT120,0.00,VWS V14.01,2013-01-18 05:08:00,
2013-01-18 01:13:00,73.4,64.2,30.03,ENE,74,0.0,2.7,73,0.00,,SCT120,0.00,VWS V14.01,2013-01-18 05:13:00,
2013-01-18 01:18:00,73.4,64.2,30.03,East,82,4.9,4.9,73,0.00,,SCT120,0.00,VWS V14.01,2013-01-18 05:18:00,
2013-01-18 01:23:00,73.2,63.7,30.03,SE,137,4.9,4.9,72,0.00,,SCT120,0.00,VWS V14.01,2013-01-18 05:23:00,
2013-01-18 01:28:00,73.0,63.5,30.03,SE,137,4.9,4.9,72,0.00,,SCT120,0.00,VWS V14.01,2013-01-18 05:28:00,
2013-01-18 01:33:00,73.0,63.5,30.03,SE,137,4.9,4.9,72,0.00,,SCT120,0.00,VWS V14.01,2013-01-18 05:33:00,
2013-01-18 01:38:00,73.0,63.5,30.03,ESE,118,3.1,4.9,72,0.00,,SCT120,0.00,VWS V14.01,2013-01-18 05:38:00,
2013-01-18 01:43:00,72.9,63.3,30.03,ESE,118,3.1,3.1,72,0.00,,SCT120,0.00,VWS V14.01,2013-01-18 05:43:00,
2013-01-18 01:48:00,73.0,63.5,30.03,ESE,118,0.0,3.1,72,0.00,,SCT120,0.00,VWS V14.01,2013-01-18 05:48:00,
2013-01-18 01:53:00,73.0,63.1,30.00,SE,128,0.0,3.1,71,0.00,,SCT120,0.00,VWS V14.01,2013-01-18 05:53:00,
2013-01-18 01:58:00,72.9,62.9,30.00,East,99,0.0,3.1,71,0.00,,SCT120,0.00,VWS V14.01,2013-01-18 05:58:00,
2013-01-18 02:03:00,73.0,62.7,30.00,ESE,108,0.0,0.0,70,0.00,,SCT120,0.00,VWS V14.01,2013-01-18 06:03:00,
2013-01-18 02:08:00,73.0,63.1,30.00,ESE,108,0.0,0.0,71,0.00,,SCT120,0.00,VWS V14.01,2013-01-18 06:08:00,
2013-01-18 02:13:00,73.2,63.3,30.00,SSE,156,2.7,2.7,71,0.00,,SCT120,0.00,VWS V14.01,2013-01-18 06:13:00,
2013-01-18 02:18:00,73.0,63.1,30.00,SSE,156,0.0,2.7,71,0.00,,SCT120,0.00,VWS V14.01,2013-01-18 06:18:00,
2013-01-18 02:23:00,72.9,62.9,30.00,SE,129,0.0,0.0,71,0.00,,SCT120,0.00,VWS V14.01,2013-01-18 06:23:00,
2013-01-18 02:28:00,72.9,62.9,30.00,SE,128,0.0,0.0,71,0.00,,SCT120,0.00,VWS V14.01,2013-01-18 06:28:00,
2013-01-18 02:33:00,72.9,62.9,30.00,SE,128,0.0,0.0,71,0.00,,SCT120,0.00,VWS V14.01,2013-01-18 06:33:00,
2013-01-18 02:38:00,72.9,63.3,30.00,SSE,151,3.1,3.1,72,0.00,,SCT120,0.00,VWS V14.01,2013-01-18 06:38:00,
2013-01-18 02:43:00,72.9,63.3,30.00,SSE,151,3.1,3.1,72,0.00,,SCT120,0.00,VWS V14.01,2013-01-18 06:43:00,
2013-01-18 02:48:00,72.7,63.1,30.00,SSE,149,0.0,3.1,72,0.00,,SCT120,0.00,VWS V14.01,2013-01-18 06:48:00,
2013-01-18 02:53:00,72.7,63.1,30.00,SSE,149,0.0,3.1,72,0.00,,SCT120,0.00,VWS V14.01,2013-01-18 06:53:00,
2013-01-18 02:58:00,72.7,63.1,30.00,SSE,149,0.0,3.1,72,0.00,,SCT120,0.00,VWS V14.01,2013-01-18 06:58:00,
2013-01-18 03:03:00,72.7,63.1,30.00,SSE,149,0.0,0.0,72,0.00,,SCT120,0.00,VWS V14.01,2013-01-18 07:03:00,
2013-01-18 03:08:00,72.3,62.8,30.00,SE,145,2.2,2.2,72,0.00,,SCT120,0.00,VWS V14.01,2013-01-18 07:08:00,
2013-01-18 03:13:00,72.1,62.6,30.00,SE,145,0.0,2.2,72,0.00,,SCT120,0.00,VWS V14.01,2013-01-18 07:13:00,
2013-01-18 03:18:00,72.0,62.5,30.00,SE,145,0.0,2.2,72,0.00,,SCT120,0.00,VWS V14.01,2013-01-18 07:18:00,
2013-01-18 03:23:00,72.0,62.8,30.00,SE,145,0.0,0.0,73,0.00,,SCT120,0.00,VWS V14.01,2013-01-18 07:23:00,
2013-01-18 03:28:00,72.0,62.8,30.00,SE,145,0.0,0.0,73,0.00,,SCT120,0.00,VWS V14.01,2013-01-18 07:28:00,
2013-01-18 03:33:00,72.0,62.8,30.00,SE,145,0.0,0.0,73,0.00,,SCT120,0.00,VWS V14.01,2013-01-18 07:33:00,
2013-01-18 03:38:00,72.0,62.8,30.00,SE,145,0.0,0.0,73,0.00,,SCT120,0.00,VWS V14.01,2013-01-18 07:38:00,
2013-01-18 03:43:00,72.0,62.8,30.00,SE,145,0.0,0.0,73,0.00,,SCT120,0.00,VWS V14.01,2013-01-18 07:43:00,
2013-01-18 03:48:00,71.8,63.1,30.00,SE,145,0.0,0.0,74,0.00,,SCT120,0.00,VWS V14.01,2013-01-18 07:48:00,
2013-01-18 03:53:00,71.6,62.9,29.97,SE,145,0.0,0.0,74,0.00,,SCT120,0.00,VWS V14.01,2013-01-18 07:53:00,
2013-01-18 03:58:00,71.8,63.4,29.97,SSE,153,3.1,3.1,75,0.00,,SCT120,0.00,VWS V14.01,2013-01-18 07:58:00,
2013-01-18 04:03:00,72.0,63.6,29.97,SSE,153,3.1,3.1,75,0.00,,SCT120,0.00,VWS V14.01,2013-01-18 08:03:00,
2013-01-18 04:08:00,72.0,63.6,30.00,ESE,105,2.2,3.1,75,0.00,,SCT120,0.00,VWS V14.01,2013-01-18 08:08:00,
2013-01-18 04:13:00,71.8,63.4,30.00,ESE,105,0.0,3.1,75,0.00,,SCT120,0.00,VWS V14.01,2013-01-18 08:13:00,
2013-01-18 04:18:00,72.0,64.0,30.00,ESE,105,0.0,3.1,76,0.00,,SCT120,0.00,VWS V14.01,2013-01-18 08:18:00,
2013-01-18 04:23:00,72.0,64.0,30.00,SE,146,0.0,0.0,76,0.00,,SCT120,0.00,VWS V14.01,2013-01-18 08:23:00,
2013-01-18 04:28:00,72.1,64.2,30.00,SE,146,0.0,0.0,76,0.00,,SCT120,0.00,VWS V14.01,2013-01-18 08:28:00,
2013-01-18 04:33:00,72.1,64.2,30.00,SE,146,0.0,0.0,76,0.00,,SCT120,0.00,VWS V14.01,2013-01-18 08:33:00,
2013-01-18 04:38:00,72.1,64.2,30.00,SE,146,0.0,0.0,76,0.00,,SCT120,0.00,VWS V14.01,2013-01-18 08:38:00,
2013-01-18 04:44:00,72.1,64.2,30.00,SE,146,0.0,0.0,76,0.00,,SCT120,0.00,VWS V14.01,2013-01-18 08:44:00,
2013-01-18 04:49:00,72.1,64.2,30.00,SE,146,0.0,0.0,76,0.00,,SCT120,0.00,VWS V14.01,2013-01-18 08:49:00,
2013-01-18 04:53:00,72.0,63.6,30.00,SE,145,0.0,0.0,75,0.00,,SCT120,0.00,VWS V14.01,2013-01-18 08:53:00,
2013-01-18 04:58:00,72.0,64.0,30.00,SE,146,0.0,0.0,76,0.00,,SCT120,0.00,VWS V14.01,2013-01-18 08:58:00,
2013-01-18 05:04:00,71.8,63.8,30.00,SE,146,0.0,0.0,76,0.00,,SCT120,0.00,VWS V14.01,2013-01-18 09:04:00,
2013-01-18 05:09:00,71.8,63.8,30.00,SE,146,0.0,0.0,76,0.00,,SCT120,0.00,VWS V14.01,2013-01-18 09:09:00,
2013-01-18 05:14:00,71.8,64.2,30.00,SE,146,0.0,0.0,77,0.00,,SCT120,0.00,VWS V14.01,2013-01-18 09:14:00,
2013-01-18 05:19:00,71.8,64.2,30.00,SE,145,0.0,0.0,77,0.00,,SCT120,0.00,VWS V14.01,2013-01-18 09:19:00,
2013-01-18 05:24:00,72.0,64.7,30.00,SE,145,0.0,0.0,78,0.00,,SCT120,0.00,VWS V14.01,2013-01-18 09:24:00,
2013-01-18 05:29:00,72.0,64.7,30.00,SE,146,0.0,0.0,78,0.00,,SCT120,0.00,VWS V14.01,2013-01-18 09:29:00,
2013-01-18 05:34:00,72.0,64.7,30.00,SE,145,0.0,0.0,78,0.00,,SCT120,0.00,VWS V14.01,2013-01-18 09:34:00,
2013-01-18 05:39:00,72.0,64.7,30.00,WSW,253,0.0,0.0,78,0.00,,SCT120,0.00,VWS V14.01,2013-01-18 09:39:00,
2013-01-18 05:44:00,72.1,64.9,30.00,WSW,251,2.7,2.7,78,0.00,,SCT120,0.00,VWS V14.01,2013-01-18 09:44:00,
2013-01-18 05:49:00,72.1,64.5,30.00,WSW,249,3.1,3.1,77,0.00,,SCT120,0.00,VWS V14.01,2013-01-18 09:49:00,
2013-01-18 05:54:00,72.1,64.5,30.00,WSW,251,0.0,3.1,77,0.00,,SCT120,0.00,VWS V14.01,2013-01-18 09:54:00,
2013-01-18 05:59:00,72.1,64.2,30.00,WSW,250,0.0,3.1,76,0.00,,SCT120,0.00,VWS V14.01,2013-01-18 09:59:00,
2013-01-18 06:04:00,72.1,64.2,30.00,WSW,250,0.0,0.0,76,0.00,,SCT120,0.00,VWS V14.01,2013-01-18 10:04:00,
2013-01-18 06:09:00,72.1,64.2,30.00,WSW,250,0.0,0.0,76,0.00,,SCT120,0.00,VWS V14.01,2013-01-18 10:09:00,
2013-01-18 06:14:00,72.1,64.2,30.00,WSW,255,3.1,3.1,76,0.00,,SCT120,0.00,VWS V14.01,2013-01-18 10:14:00,
2013-01-18 06:19:00,72.1,64.2,30.00,WSW,255,3.1,3.1,76,0.00,,SCT120,0.00,VWS V14.01,2013-01-18 10:19:00,
2013-01-18 06:24:00,72.1,64.2,30.00,WSW,255,0.0,3.1,76,0.00,,SCT120,0.00,VWS V14.01,2013-01-18 10:24:00,
2013-01-18 06:29:00,72.1,63.8,30.00,WSW,256,0.0,3.1,75,0.00,,SCT120,0.00,VWS V14.01,2013-01-18 10:29:00,
2013-01-18 06:34:00,72.1,63.8,30.00,WSW,256,0.0,3.1,75,0.00,,SCT120,0.00,VWS V14.01,2013-01-18 10:34:00,
2013-01-18 06:39:00,72.1,63.8,30.00,WSW,256,0.0,3.1,75,0.00,,SCT120,0.00,VWS V14.01,2013-01-18 10:39:00,
2013-01-18 06:43:00,72.1,64.2,30.00,SW,234,0.0,0.0,76,0.00,,SCT120,0.00,VWS V14.01,2013-01-18 10:43:00,
2013-01-18 06:48:00,72.1,64.2,30.00,SW,234,0.0,0.0,76,0.00,,SCT120,0.00,VWS V14.01,2013-01-18 10:48:00,
2013-01-18 06:53:00,72.0,64.0,30.00,SSW,206,0.0,0.0,76,0.00,,SCT120,0.00,VWS V14.01,2013-01-18 10:53:00,
2013-01-18 06:58:00,72.0,64.0,30.00,SSW,205,0.0,0.0,76,0.00,,SCT120,0.00,VWS V14.01,2013-01-18 10:58:00,
2013-01-18 07:03:00,71.8,63.4,30.00,SSW,205,0.0,0.0,75,0.00,,SCT120,0.00,VWS V14.01,2013-01-18 11:03:00,
2013-01-18 07:08:00,71.4,63.5,30.03,SSW,205,0.0,0.0,76,0.00,,SCT120,0.00,VWS V14.01,2013-01-18 11:08:00,
2013-01-18 07:13:00,71.2,63.3,30.03,SSW,206,0.0,0.0,76,0.00,,SCT120,0.00,VWS V14.01,2013-01-18 11:13:00,
2013-01-18 07:19:00,71.2,63.7,30.03,SSW,205,0.0,0.0,77,0.00,,SCT120,0.00,VWS V14.01,2013-01-18 11:19:00,
2013-01-18 07:24:00,71.2,63.7,30.03,SSW,206,0.0,0.0,77,0.00,,SCT120,0.00,VWS V14.01,2013-01-18 11:24:00,
2013-01-18 07:29:00,71.2,63.7,30.03,SSW,205,0.0,0.0,77,0.00,,SCT120,0.00,VWS V14.01,2013-01-18 11:29:00,
2013-01-18 07:34:00,71.2,64.0,30.03,SSW,205,0.0,0.0,78,0.00,,SCT120,0.00,VWS V14.01,2013-01-18 11:34:00,
2013-01-18 07:39:00,71.2,64.0,30.03,SSW,205,0.0,0.0,78,0.00,,SCT120,0.00,VWS V14.01,2013-01-18 11:39:00,
2013-01-18 07:44:00,71.2,64.4,30.03,SSW,206,0.0,0.0,79,0.00,,SCT120,0.00,VWS V14.01,2013-01-18 11:44:00,
2013-01-18 07:49:00,71.2,64.8,30.03,SSW,206,0.0,0.0,80,0.00,,SCT120,0.00,VWS V14.01,2013-01-18 11:49:00,
2013-01-18 07:54:00,71.2,65.1,30.03,SSW,205,0.0,0.0,81,0.00,,SCT120,0.00,VWS V14.01,2013-01-18 11:54:00,
2013-01-18 07:59:00,71.4,65.3,30.03,SSW,205,0.0,0.0,81,0.00,,SCT120,0.00,VWS V14.01,2013-01-18 11:59:00,
2013-01-18 08:04:00,71.6,65.5,30.03,SSW,206,0.0,0.0,81,0.00,,SCT120,0.00,VWS V14.01,2013-01-18 12:04:00,
2013-01-18 08:09:00,71.6,65.5,30.06,SSW,205,0.0,0.0,81,0.00,,SCT120,0.00,VWS V14.01,2013-01-18 12:09:00,
2013-01-18 08:14:00,71.8,65.6,30.06,SSW,206,0.0,0.0,81,0.00,,SCT120,0.00,VWS V14.01,2013-01-18 12:14:00,
2013-01-18 08:19:00,72.0,65.8,30.06,SSW,206,0.0,0.0,81,0.00,,SCT120,0.00,VWS V14.01,2013-01-18 12:19:00,
2013-01-18 08:24:00,72.1,66.0,30.06,SSW,206,0.0,0.0,81,0.00,,SCT120,0.00,VWS V14.01,2013-01-18 12:24:00,
2013-01-18 08:29:00,72.5,66.3,30.06,SSW,205,2.2,2.2,81,0.00,,SCT120,0.00,VWS V14.01,2013-01-18 12:29:00,
2013-01-18 08:34:00,72.7,66.5,30.06,SSE,157,2.2,2.2,81,0.00,,SCT120,0.00,VWS V14.01,2013-01-18 12:34:00,
2013-01-18 08:39:00,72.7,66.5,30.06,SSE,157,0.0,2.2,81,0.00,,SCT120,0.00,VWS V14.01,2013-01-18 12:39:00,
2013-01-18 08:44:00,72.7,66.2,30.06,SE,138,0.0,0.0,80,0.00,,SCT120,0.00,VWS V14.01,2013-01-18 12:44:00,
2013-01-18 08:49:00,72.7,66.2,30.06,South,172,3.1,3.1,80,0.00,,SCT120,0.00,VWS V14.01,2013-01-18 12:49:00,
2013-01-18 08:54:00,72.9,66.3,30.06,SE,131,2.2,4.9,80,0.00,,SCT120,0.00,VWS V14.01,2013-01-18 12:54:00,
2013-01-18 08:59:00,73.2,67.1,30.06,SE,137,0.0,4.9,81,0.00,,SCT120,0.00,VWS V14.01,2013-01-18 12:59:00,
2013-01-18 09:04:00,73.4,66.9,30.06,SSE,149,0.0,2.7,80,0.00,,SCT120,0.00,VWS V14.01,2013-01-18 13:04:00,
2013-01-18 09:09:00,73.8,67.2,30.06,SSE,163,0.0,3.6,80,0.00,,SCT120,0.00,VWS V14.01,2013-01-18 13:09:00,
2013-01-18 09:14:00,73.9,67.0,30.06,SSE,163,0.0,3.6,79,0.00,,SCT120,0.00,VWS V14.01,2013-01-18 13:14:00,
2013-01-18 09:19:00,74.7,67.7,30.06,SSE,152,2.7,2.7,79,0.00,,SCT120,0.00,VWS V14.01,2013-01-18 13:19:00,
2013-01-18 09:24:00,74.8,67.9,30.06,SSE,156,4.0,4.0,79,0.00,,SCT120,0.00,VWS V14.01,2013-01-18 13:24:00,
2013-01-18 09:29:00,75.0,67.7,30.06,SSE,152,2.7,4.0,78,0.00,,SCT120,0.00,VWS V14.01,2013-01-18 13:29:00,
2013-01-18 09:34:00,75.2,67.1,30.06,SSE,156,3.1,4.0,76,0.00,,SCT120,0.00,VWS V14.01,2013-01-18 13:34:00,
2013-01-18 09:39:00,75.4,66.9,30.06,SSE,162,2.2,2.2,75,0.00,,SCT120,0.00,VWS V14.01,2013-01-18 13:39:00,
2013-01-18 09:44:00,75.4,66.5,30.06,SSE,162,0.0,2.2,74,0.00,,SCT120,0.00,VWS V14.01,2013-01-18 13:44:00,
2013-01-18 09:49:00,75.4,66.1,30.06,ESE,113,0.0,2.2,73,0.00,,SCT120,0.00,VWS V14.01,2013-01-18 13:49:00,
2013-01-18 09:54:00,75.6,66.3,30.09,ESE,113,0.0,2.2,73,0.00,,SCT120,0.00,VWS V14.01,2013-01-18 13:54:00,
2013-01-18 09:59:00,75.9,65.8,30.09,ESE,112,0.0,0.0,71,0.00,,SCT120,0.00,VWS V14.01,2013-01-18 13:59:00,
2013-01-18 10:04:00,76.3,65.8,30.09,ESE,121,0.0,0.0,70,0.00,,SCT120,0.00,VWS V14.01,2013-01-18 14:04:00,
2013-01-18 10:09:00,76.8,65.9,30.09,ESE,120,0.0,0.0,69,0.00,,SCT120,0.00,VWS V14.01,2013-01-18 14:09:00,
2013-01-18 10:14:00,77.7,66.3,30.09,ESE,120,0.0,0.0,68,0.00,,SCT120,0.00,VWS V14.01,2013-01-18 14:14:00,
2013-01-18 10:19:00,77.9,57.8,30.09,NNW,328,0.0,0.0,50,0.00,,SCT120,0.00,VWS V14.01,2013-01-18 14:19:00,
2013-01-18 10:24:00,78.4,58.8,30.06,ESE,107,2.2,3.1,51,0.00,,SCT120,0.00,VWS V14.01,2013-01-18 14:24:00,
2013-01-18 10:29:00,78.8,58.6,30.06,ESE,105,2.7,3.1,50,0.00,,SCT120,0.00,VWS V14.01,2013-01-18 14:29:00,
2013-01-18 10:34:00,78.8,58.0,30.06,ESE,105,0.0,3.1,49,0.00,,SCT120,0.00,VWS V14.01,2013-01-18 14:34:00,
2013-01-18 10:39:00,79.0,58.2,30.06,SSE,156,5.4,5.4,49,0.00,,SCT120,0.00,VWS V14.01,2013-01-18 14:39:00,
2013-01-18 10:44:00,79.2,57.8,30.06,SSE,147,3.6,5.8,48,0.00,,SCT120,0.00,VWS V14.01,2013-01-18 14:44:00,
2013-01-18 10:49:00,79.3,57.4,30.06,ESE,112,3.6,5.8,47,0.00,,SCT120,0.00,VWS V14.01,2013-01-18 14:49:00,
2013-01-18 10:54:00,79.3,58.0,30.06,SSE,161,3.1,5.8,48,0.00,,SCT120,0.00,VWS V14.01,2013-01-18 14:54:00,
2013-01-18 10:59:00,79.3,56.8,30.06,South,177,6.3,6.3,46,0.00,,SCT120,0.00,VWS V14.01,2013-01-18 14:59:00,
2013-01-18 11:04:00,79.5,57.5,30.06,South,184,3.6,6.3,47,0.00,,SCT120,0.00,VWS V14.01,2013-01-18 15:04:00,
2013-01-18 11:09:00,79.9,56.7,30.06,SSE,157,5.8,6.3,45,0.00,,SCT120,0.00,VWS V14.01,2013-01-18 15:09:00,
2013-01-18 11:14:00,80.6,56.7,30.06,SSE,150,3.6,6.3,44,0.00,,SCT120,0.00,VWS V14.01,2013-01-18 15:14:00,
2013-01-18 11:19:00,81.3,57.3,30.06,South,190,5.4,8.3,44,0.00,,SCT120,0.00,VWS V14.01,2013-01-18 15:19:00,
2013-01-18 11:24:00,81.7,55.7,30.06,South,176,7.6,8.3,41,0.00,,SCT120,0.00,VWS V14.01,2013-01-18 15:24:00,
2013-01-18 11:29:00,81.7,55.0,30.06,SSE,168,10.5,10.5,40,0.00,,SCT120,0.00,VWS V14.01,2013-01-18 15:29:00,
2013-01-18 11:34:00,81.3,55.4,30.06,South,185,9.6,10.5,41,0.00,,SCT120,0.00,VWS V14.01,2013-01-18 15:34:00,
2013-01-18 11:39:00,81.5,55.5,30.06,South,170,10.1,10.5,41,0.00,,SCT120,0.00,VWS V14.01,2013-01-18 15:39:00,
2013-01-18 11:44:00,81.5,54.2,30.06,SE,144,7.6,10.1,39,0.00,,SCT120,0.00,VWS V14.01,2013-01-18 15:44:00,
2013-01-18 11:49:00,80.4,53.9,30.06,South,175,7.6,12.8,40,0.00,,SCT120,0.00,VWS V14.01,2013-01-18 15:49:00,
2013-01-18 11:54:00,80.1,54.3,30.06,SSE,164,10.5,12.8,41,0.00,,SCT120,0.00,VWS V14.01,2013-01-18 15:54:00,
2013-01-18 11:59:00,79.5,54.4,30.06,SSE,148,8.3,12.8,42,0.00,,SCT120,0.00,VWS V14.01,2013-01-18 15:59:00,
2013-01-18 12:04:00,79.5,55.1,30.06,South,173,7.6,8.7,43,0.00,,SCT120,0.00,VWS V14.01,2013-01-18 16:04:00,
2013-01-18 12:09:00,79.2,54.1,30.06,South,187,6.3,11.9,42,0.00,,SCT120,0.00,VWS V14.01,2013-01-18 16:09:00,
2013-01-18 12:14:00,78.8,55.1,30.06,South,183,5.4,11.9,44,0.00,,SCT120,0.00,VWS V14.01,2013-01-18 16:14:00,
2013-01-18 12:19:00,78.6,54.3,30.06,SSE,163,5.4,11.9,43,0.00,,SCT120,0.00,VWS V14.01,2013-01-18 16:19:00,
2013-01-18 12:24:00,78.8,52.5,30.03,SSE,168,4.9,8.1,40,0.00,,SCT120,0.00,VWS V14.01,2013-01-18 16:24:00,
2013-01-18 12:29:00,79.0,53.3,30.03,South,187,3.6,8.1,41,0.00,,SCT120,0.00,VWS V14.01,2013-01-18 16:29:00,
2013-01-18 12:34:00,79.2,53.5,30.03,SSW,197,5.4,8.1,41,0.00,,SCT120,0.00,VWS V14.01,2013-01-18 16:34:00,
2013-01-18 12:39:00,79.3,53.6,30.03,SSW,198,6.3,8.1,41,0.00,,SCT120,0.00,VWS V14.01,2013-01-18 16:39:00,
2013-01-18 12:44:00,79.2,54.8,30.03,SSW,195,4.0,7.6,43,0.00,,SCT120,0.00,VWS V14.01,2013-01-18 16:44:00,
2013-01-18 12:49:00,79.3,54.9,30.03,WSW,245,4.0,7.6,43,0.00,,SCT120,0.00,VWS V14.01,2013-01-18 16:49:00,
2013-01-18 12:54:00,79.9,54.8,30.03,SE,139,5.4,7.6,42,0.00,,SCT120,0.00,VWS V14.01,2013-01-18 16:54:00,
2013-01-18 12:59:00,80.4,55.2,30.03,SSE,150,3.6,7.6,42,0.00,,SCT120,0.00,VWS V14.01,2013-01-18 16:59:00,
2013-01-18 13:04:00,81.0,54.4,30.03,SSE,162,5.4,6.3,40,0.00,,SCT120,0.00,VWS V14.01,2013-01-18 17:04:00,
2013-01-18 13:09:00,81.5,54.9,30.03,SSE,165,5.4,6.3,40,0.00,,SCT120,0.00,VWS V14.01,2013-01-18 17:09:00,
2013-01-18 13:14:00,81.9,53.8,30.03,SSE,167,4.9,6.3,38,0.00,,SCT120,0.00,VWS V14.01,2013-01-18 17:14:00,
2013-01-18 13:19:00,81.7,52.2,30.03,SSE,162,5.8,6.3,36,0.00,,SCT120,0.00,VWS V14.01,2013-01-18 17:19:00,
2013-01-18 13:24:00,81.9,52.3,30.03,SSE,155,6.3,7.6,36,0.00,,SCT120,0.00,VWS V14.01,2013-01-18 17:24:00,
2013-01-18 13:29:00,81.3,51.8,30.03,SE,144,6.7,7.6,36,0.00,,SCT120,0.00,VWS V14.01,2013-01-18 17:29:00,
2013-01-18 13:34:00,81.3,51.8,30.03,SSE,167,3.1,7.6,36,0.00,,SCT120,0.00,VWS V14.01,2013-01-18 17:34:00,
2013-01-18 13:39:00,81.7,51.4,30.00,SSW,205,2.7,7.6,35,0.00,,SCT120,0.00,VWS V14.01,2013-01-18 17:39:00,
2013-01-18 13:44:00,82.4,50.4,30.00,SSE,159,3.1,6.3,33,0.00,,SCT120,0.00,VWS V14.01,2013-01-18 17:44:00,
2013-01-18 13:49:00,82.4,48.8,30.00,SSW,194,3.6,7.6,31,0.00,,SCT120,0.00,VWS V14.01,2013-01-18 17:49:00,
2013-01-18 13:54:00,82.2,49.5,30.00,South,183,6.3,7.6,32,0.00,,SCT120,0.00,VWS V14.01,2013-01-18 17:54:00,
2013-01-18 13:59:00,82.2,49.5,30.00,SE,139,3.1,7.6,32,0.00,,SCT120,0.00,VWS V14.01,2013-01-18 17:59:00,
2013-01-18 14:04:00,82.6,49.8,30.00,SSE,151,2.7,3.1,32,0.00,,SCT120,0.00,VWS V14.01,2013-01-18 18:04:00,
2013-01-18 14:09:00,82.9,50.1,30.00,South,189,4.0,4.0,32,0.00,,SCT120,0.00,VWS V14.01,2013-01-18 18:09:00,
2013-01-18 14:14:00,83.1,49.4,30.00,SSE,160,2.2,5.8,31,0.00,,SCT120,0.00,VWS V14.01,2013-01-18 18:14:00,
2013-01-18 14:19:00,83.3,48.7,30.00,SE,131,2.7,5.8,30,0.00,,SCT120,0.00,VWS V14.01,2013-01-18 18:19:00,
2013-01-18 14:24:00,83.1,48.5,30.00,ESE,114,0.0,2.7,30,0.00,,SCT120,0.00,VWS V14.01,2013-01-18 18:24:00,
2013-01-18 14:29:00,83.3,48.7,30.00,ESE,105,3.6,4.5,30,0.00,,SCT120,0.00,VWS V14.01,2013-01-18 18:29:00,
2013-01-18 14:34:00,83.5,48.8,30.00,South,191,4.0,4.5,30,0.00,,SCT120,0.00,VWS V14.01,2013-01-18 18:34:00,
2013-01-18 14:39:00,84.2,48.5,30.00,SE,146,2.7,4.5,29,0.00,,SCT120,0.00,VWS V14.01,2013-01-18 18:39:00,
2013-01-18 14:44:00,84.6,46.9,30.00,SSE,147,2.7,4.0,27,0.00,,SCT120,0.00,VWS V14.01,2013-01-18 18:44:00,
2013-01-18 14:49:00,84.9,48.2,30.00,SSE,147,0.0,4.0,28,0.00,,SCT120,0.00,VWS V14.01,2013-01-18 18:49:00,
2013-01-18 14:54:00,84.9,45.2,29.97,NE,49,3.1,4.0,25,0.00,,SCT120,0.00,VWS V14.01,2013-01-18 18:54:00,
2013-01-18 14:59:00,83.5,47.9,29.97,NE,44,3.1,5.4,29,0.00,,SCT120,0.00,VWS V14.01,2013-01-18 18:59:00,
2013-01-18 15:04:00,82.6,48.0,29.97,NNW,342,5.8,5.8,30,0.00,,SCT120,0.00,VWS V14.01,2013-01-18 19:04:00,
2013-01-18 15:09:00,81.7,48.1,29.97,NE,45,4.0,7.6,31,0.00,,SCT120,0.00,VWS V14.01,2013-01-18 19:09:00,
2013-01-18 15:14:00,81.5,48.0,29.97,NE,41,3.6,7.6,31,0.00,,SCT120,0.00,VWS V14.01,2013-01-18 19:14:00,
2013-01-18 15:19:00,81.5,48.8,29.97,NNE,25,2.2,7.6,32,0.00,,SCT120,0.00,VWS V14.01,2013-01-18 19:19:00,
2013-01-18 15:24:00,81.1,47.7,29.97,NE,37,3.1,4.0,31,0.00,,SCT120,0.00,VWS V14.01,2013-01-18 19:24:00,
2013-01-18 15:29:00,81.0,48.4,29.97,NNE,20,4.9,4.9,32,0.00,,SCT120,0.00,VWS V14.01,2013-01-18 19:29:00,
2013-01-18 15:34:00,80.6,47.2,29.97,NNE,28,3.1,5.4,31,0.00,,SCT120,0.00,VWS V14.01,2013-01-18 19:34:00,
2013-01-18 15:39:00,80.6,47.2,29.97,ENE,57,2.2,3.1,31,0.00,,SCT120,0.00,VWS V14.01,2013-01-18 19:39:00,
2013-01-18 15:44:00,81.0,48.4,29.97,ENE,78,3.1,4.0,32,0.00,,SCT120,0.00,VWS V14.01,2013-01-18 19:44:00,
2013-01-18 15:49:00,81.0,48.4,29.97,NE,42,3.6,4.0,32,0.00,,SCT120,0.00,VWS V14.01,2013-01-18 19:49:00,
2013-01-18 15:54:00,80.6,47.2,29.97,NNE,33,3.6,4.0,31,0.00,,SCT120,0.00,VWS V14.01,2013-01-18 19:54:00,
2013-01-18 15:59:00,80.8,47.4,29.97,East,95,0.0,0.0,31,0.00,,SCT120,0.00,VWS V14.01,2013-01-18 19:59:00,
2013-01-18 16:04:00,80.8,47.4,29.97,NNE,29,5.8,5.8,31,0.00,,SCT120,0.00,VWS V14.01,2013-01-18 20:04:00,
2013-01-18 16:09:00,80.8,48.2,29.97,NNE,25,3.6,5.8,32,0.00,,SCT120,0.00,VWS V14.01,2013-01-18 20:09:00,
2013-01-18 16:14:00,80.8,47.4,29.97,East,88,3.6,5.8,31,0.00,,SCT120,0.00,VWS V14.01,2013-01-18 20:14:00,
2013-01-18 16:19:00,80.8,48.2,29.97,NNE,12,3.1,3.1,32,0.00,,SCT120,0.00,VWS V14.01,2013-01-18 20:19:00,
2013-01-18 16:24:00,81.3,48.7,29.97,ESE,109,3.6,5.8,32,0.00,,SCT120,0.00,VWS V14.01,2013-01-18 20:24:00,
2013-01-18 16:29:00,82.0,48.5,29.97,ESE,103,4.0,8.1,31,0.00,,SCT120,0.00,VWS V14.01,2013-01-18 20:29:00,
2013-01-18 16:34:00,82.4,47.9,29.97,ESE,119,2.7,8.1,30,0.00,,SCT120,0.00,VWS V14.01,2013-01-18 20:34:00,
2013-01-18 16:39:00,82.6,48.0,30.00,ESE,118,4.0,4.0,30,0.00,,SCT120,0.00,VWS V14.01,2013-01-18 20:39:00,
2013-01-18 16:44:00,82.4,47.0,30.00,ENE,59,4.0,5.8,29,0.00,,SCT120,0.00,VWS V14.01,2013-01-18 20:44:00,
2013-01-18 16:49:00,81.7,47.3,30.00,East,97,3.6,5.8,30,0.00,,SCT120,0.00,VWS V14.01,2013-01-18 20:49:00,
2013-01-18 16:54:00,81.1,47.7,30.00,NE,50,3.6,5.8,31,0.00,,SCT120,0.00,VWS V14.01,2013-01-18 20:54:00,
2013-01-18 16:59:00,80.4,47.9,30.00,East,99,3.1,3.1,32,0.00,,SCT120,0.00,VWS V14.01,2013-01-18 20:59:00,
2013-01-18 17:04:00,80.4,47.9,30.00,SE,126,4.0,4.9,32,0.00,,SCT120,0.00,VWS V14.01,2013-01-18 21:04:00,
2013-01-18 17:09:00,80.4,47.9,30.00,ESE,110,3.6,4.9,32,0.00,,SCT120,0.00,VWS V14.01,2013-01-18 21:09:00,
2013-01-18 17:14:00,80.2,46.9,30.00,ESE,110,3.6,4.9,31,0.00,,SCT120,0.00,VWS V14.01,2013-01-18 21:14:00,
2013-01-18 17:19:00,80.2,46.9,30.00,SE,126,0.0,0.0,31,0.00,,SCT120,0.00,VWS V14.01,2013-01-18 21:19:00,
2013-01-18 17:24:00,79.9,46.6,30.00,ENE,72,2.7,2.7,31,0.00,,SCT120,0.00,VWS V14.01,2013-01-18 21:24:00,
2013-01-18 17:29:00,79.7,46.4,30.00,ENE,68,3.1,3.1,31,0.00,,SCT120,0.00,VWS V14.01,2013-01-18 21:29:00,
2013-01-18 17:34:00,79.7,46.4,30.00,ENE,73,4.0,4.0,31,0.00,,SCT120,0.00,VWS V14.01,2013-01-18 21:34:00,
2013-01-18 17:39:00,79.5,46.3,30.00,ENE,77,2.2,2.2,31,0.00,,SCT120,0.00,VWS V14.01,2013-01-18 21:39:00,
2013-01-18 17:44:00,79.5,46.3,30.00,ENE,71,3.1,4.0,31,0.00,,SCT120,0.00,VWS V14.01,2013-01-18 21:44:00,
2013-01-18 17:49:00,79.3,46.1,30.00,NE,51,4.5,5.4,31,0.00,,SCT120,0.00,VWS V14.01,2013-01-18 21:49:00,
2013-01-18 17:54:00,79.2,46.0,30.00,East,97,0.0,5.4,31,0.00,,SCT120,0.00,VWS V14.01,2013-01-18 21:54:00,
2013-01-18 17:59:00,79.2,46.8,30.00,East,101,2.2,2.2,32,0.00,,SCT120,0.00,VWS V14.01,2013-01-18 21:59:00,
2013-01-18 18:04:00,79.0,46.6,30.00,East,94,0.0,2.2,32,0.00,,SCT120,0.00,VWS V14.01,2013-01-18 22:04:00,
2013-01-18 18:09:00,78.8,46.5,30.00,East,89,2.2,3.1,32,0.00,,SCT120,0.00,VWS V14.01,2013-01-18 22:09:00,
2013-01-18 18:14:00,78.6,47.1,30.00,ESE,102,2.2,3.6,33,0.00,,SCT120,0.00,VWS V14.01,2013-01-18 22:14:00,
2013-01-18 18:19:00,78.3,47.6,30.00,ESE,123,0.0,2.7,34,0.00,,SCT120,0.00,VWS V14.01,2013-01-18 22:19:00,
2013-01-18 18:24:00,78.3,47.6,30.00,East,96,2.7,2.7,34,0.00,,SCT120,0.00,VWS V14.01,2013-01-18 22:24:00,
2013-01-18 18:29:00,78.3,47.6,30.00,East,97,0.0,2.7,34,0.00,,SCT120,0.00,VWS V14.01,2013-01-18 22:29:00,
2013-01-18 18:34:00,78.1,47.5,30.00,East,98,0.0,2.7,34,0.00,,SCT120,0.00,VWS V14.01,2013-01-18 22:34:00,
2013-01-18 18:39:00,78.1,47.5,30.03,East,99,0.0,0.0,34,0.00,,SCT120,0.00,VWS V14.01,2013-01-18 22:39:00,
2013-01-18 18:44:00,77.9,47.3,30.03,East,100,0.0,0.0,34,0.00,,SCT120,0.00,VWS V14.01,2013-01-18 22:44:00,
2013-01-18 18:49:00,77.9,48.1,30.03,East,99,0.0,0.0,35,0.00,,SCT120,0.00,VWS V14.01,2013-01-18 22:49:00,
2013-01-18 18:54:00,77.7,47.9,30.03,ESE,113,0.0,0.0,35,0.00,,SCT120,0.00,VWS V14.01,2013-01-18 22:54:00,
2013-01-18 18:59:00,77.5,47.8,30.03,East,90,0.0,0.0,35,0.00,,SCT120,0.00,VWS V14.01,2013-01-18 22:59:00,
2013-01-18 19:04:00,77.5,48.5,30.03,East,90,0.0,0.0,36,0.00,,SCT120,0.00,VWS V14.01,2013-01-18 23:04:00,
2013-01-18 19:09:00,77.4,48.3,30.03,East,90,0.0,0.0,36,0.00,,SCT120,0.00,VWS V14.01,2013-01-18 23:09:00,
2013-01-18 19:14:00,77.4,49.1,30.03,East,90,0.0,0.0,37,0.00,,SCT120,0.00,VWS V14.01,2013-01-18 23:14:00,
2013-01-18 19:19:00,77.2,50.3,30.03,East,90,0.0,0.0,39,0.00,,SCT120,0.00,VWS V14.01,2013-01-18 23:19:00,
2013-01-18 19:24:00,76.6,51.2,30.03,East,90,0.0,0.0,41,0.00,,SCT120,0.00,VWS V14.01,2013-01-18 23:24:00,
2013-01-18 19:29:00,76.5,52.3,30.03,East,90,0.0,0.0,43,0.00,,SCT120,0.00,VWS V14.01,2013-01-18 23:29:00,
2013-01-18 19:34:00,76.3,52.8,30.03,East,90,0.0,0.0,44,0.00,,SCT120,0.00,VWS V14.01,2013-01-18 23:34:00,
2013-01-18 19:39:00,76.1,53.2,30.03,East,90,0.0,0.0,45,0.00,,SCT120,0.00,VWS V14.01,2013-01-18 23:39:00,
2013-01-18 19:44:00,76.3,54.0,30.03,East,90,0.0,0.0,46,0.00,,SCT120,0.00,VWS V14.01,2013-01-18 23:44:00,
2013-01-18 19:49:00,76.1,53.2,30.03,East,90,0.0,0.0,45,0.00,,SCT120,0.00,VWS V14.01,2013-01-18 23:49:00,
2013-01-18 19:54:00,76.1,53.8,30.03,East,90,0.0,0.0,46,0.00,,SCT120,0.00,VWS V14.01,2013-01-18 23:54:00,
2013-01-18 19:59:00,75.9,53.7,30.03,East,90,0.0,0.0,46,0.00,,SCT120,0.00,VWS V14.01,2013-01-18 23:59:00,
2013-01-18 20:04:00,75.9,53.7,30.03,East,90,0.0,0.0,46,0.00,,SCT120,0.00,VWS V14.01,2013-01-19 00:04:00,
2013-01-18 20:09:00,75.9,53.7,30.06,East,90,0.0,0.0,46,0.00,,SCT120,0.00,VWS V14.01,2013-01-19 00:09:00,
2013-01-18 20:14:00,75.6,53.3,30.06,East,90,0.0,0.0,46,0.00,,SCT120,0.00,VWS V14.01,2013-01-19 00:14:00,
2013-01-18 20:19:00,75.2,53.6,30.06,East,90,0.0,0.0,47,0.00,,SCT120,0.00,VWS V14.01,2013-01-19 00:19:00,
2013-01-18 20:24:00,74.8,55.0,30.06,East,90,0.0,0.0,50,0.00,,SCT120,0.00,VWS V14.01,2013-01-19 00:24:00,
2013-01-18 20:29:00,74.7,56.9,30.06,East,90,0.0,0.0,54,0.00,,SCT120,0.00,VWS V14.01,2013-01-19 00:29:00,
2013-01-18 20:34:00,74.5,57.8,30.06,East,90,0.0,0.0,56,0.00,,SCT120,0.00,VWS V14.01,2013-01-19 00:34:00,
2013-01-18 20:39:00,74.3,58.6,30.06,East,90,0.0,0.0,58,0.00,,SCT120,0.00,VWS V14.01,2013-01-19 00:39:00,
2013-01-18 20:44:00,74.3,59.5,30.06,East,90,0.0,0.0,60,0.00,,SCT120,0.00,VWS V14.01,2013-01-19 00:44:00,
2013-01-18 20:49:00,74.3,60.0,30.06,East,90,0.0,0.0,61,0.00,,SCT120,0.00,VWS V14.01,2013-01-19 00:49:00,
2013-01-18 20:54:00,74.3,60.5,30.06,East,90,0.0,0.0,62,0.00,,SCT120,0.00,VWS V14.01,2013-01-19 00:54:00,
2013-01-18 20:59:00,74.1,60.3,30.06,East,90,0.0,0.0,62,0.00,,SCT120,0.00,VWS V14.01,2013-01-19 00:59:00,
2013-01-18 21:04:00,74.1,60.3,30.06,East,90,0.0,0.0,62,0.00,,SCT120,0.00,VWS V14.01,2013-01-19 01:04:00,
2013-01-18 21:09:00,73.9,60.6,30.06,East,90,0.0,0.0,63,0.00,,SCT120,0.00,VWS V14.01,2013-01-19 01:09:00,
2013-01-18 21:14:00,73.9,60.6,30.06,East,90,0.0,0.0,63,0.00,,SCT120,0.00,VWS V14.01,2013-01-19 01:14:00,
2013-01-18 21:19:00,73.8,60.4,30.06,East,90,0.0,0.0,63,0.00,,SCT120,0.00,VWS V14.01,2013-01-19 01:19:00,
2013-01-18 21:24:00,73.8,60.8,30.06,East,90,0.0,0.0,64,0.00,,SCT120,0.00,VWS V14.01,2013-01-19 01:24:00,
2013-01-18 21:29:00,73.6,61.1,30.06,East,90,0.0,0.0,65,0.00,,SCT120,0.00,VWS V14.01,2013-01-19 01:29:00,
2013-01-18 21:34:00,73.6,61.1,30.06,East,90,0.0,0.0,65,0.00,,SCT120,0.00,VWS V14.01,2013-01-19 01:34:00,
2013-01-18 21:39:00,73.4,60.9,30.06,East,90,0.0,0.0,65,0.00,,SCT120,0.00,VWS V14.01,2013-01-19 01:39:00,
2013-01-18 21:44:00,73.2,61.2,30.06,East,90,0.0,0.0,66,0.00,,SCT120,0.00,VWS V14.01,2013-01-19 01:44:00,
2013-01-18 21:49:00,73.0,61.5,30.06,East,90,0.0,0.0,67,0.00,,SCT120,0.00,VWS V14.01,2013-01-19 01:49:00,
2013-01-18 21:54:00,72.9,61.3,30.06,East,90,0.0,0.0,67,0.00,,SCT120,0.00,VWS V14.01,2013-01-19 01:54:00,
2013-01-18 21:59:00,72.7,61.5,30.06,East,91,0.0,0.0,68,0.00,,SCT120,0.00,VWS V14.01,2013-01-19 01:59:00,
2013-01-18 22:04:00,72.9,61.7,30.06,East,90,0.0,0.0,68,0.00,,SCT120,0.00,VWS V14.01,2013-01-19 02:04:00,
2013-01-18 22:09:00,72.9,62.1,30.06,East,90,0.0,0.0,69,0.00,,SCT120,0.00,VWS V14.01,2013-01-19 02:09:00,
2013-01-18 22:14:00,72.9,62.1,30.06,East,90,0.0,0.0,69,0.00,,SCT120,0.00,VWS V14.01,2013-01-19 02:14:00,
2013-01-18 22:19:00,73.0,62.3,30.06,East,91,0.0,0.0,69,0.00,,SCT120,0.00,VWS V14.01,2013-01-19 02:19:00,
2013-01-18 22:24:00,73.0,62.3,30.06,East,90,0.0,0.0,69,0.00,,SCT120,0.00,VWS V14.01,2013-01-19 02:24:00,
2013-01-18 22:29:00,72.7,61.9,30.06,East,91,0.0,0.0,69,0.00,,SCT120,0.00,VWS V14.01,2013-01-19 02:29:00,
2013-01-18 22:34:00,72.5,61.8,30.06,East,91,0.0,0.0,69,0.00,,SCT120,0.00,VWS V14.01,2013-01-19 02:34:00,
2013-01-18 22:39:00,72.5,61.8,30.06,East,90,0.0,0.0,69,0.00,,SCT120,0.00,VWS V14.01,2013-01-19 02:39:00,
2013-01-18 22:44:00,72.3,61.6,30.06,East,91,0.0,0.0,69,0.00,,SCT120,0.00,VWS V14.01,2013-01-19 02:44:00,
2013-01-18 22:49:00,72.1,61.8,30.06,East,91,0.0,0.0,70,0.00,,SCT120,0.00,VWS V14.01,2013-01-19 02:49:00,
2013-01-18 22:54:00,72.3,62.4,30.06,East,91,0.0,0.0,71,0.00,,SCT120,0.00,VWS V14.01,2013-01-19 02:54:00,
2013-01-18 22:59:00,72.3,62.4,30.06,East,91,0.0,0.0,71,0.00,,SCT120,0.00,VWS V14.01,2013-01-19 02:59:00,
2013-01-18 23:04:00,72.3,62.4,30.06,East,91,0.0,0.0,71,0.00,,SCT120,0.00,VWS V14.01,2013-01-19 03:04:00,
2013-01-18 23:09:00,72.3,62.4,30.06,East,91,0.0,0.0,71,0.00,,SCT120,0.00,VWS V14.01,2013-01-19 03:09:00,
2013-01-18 23:14:00,72.1,62.2,30.06,East,90,0.0,0.0,71,0.00,,SCT120,0.00,VWS V14.01,2013-01-19 03:14:00,
2013-01-18 23:19:00,72.1,62.2,30.06,East,90,0.0,0.0,71,0.00,,SCT120,0.00,VWS V14.01,2013-01-19 03:19:00,
2013-01-18 23:24:00,72.0,62.0,30.06,East,91,0.0,0.0,71,0.00,,SCT120,0.00,VWS V14.01,2013-01-19 03:24:00,
2013-01-18 23:29:00,72.0,62.0,30.06,East,91,0.0,0.0,71,0.00,,SCT120,0.00,VWS V14.01,2013-01-19 03:29:00,
2013-01-18 23:34:00,72.0,62.0,30.06,East,90,0.0,0.0,71,0.00,,SCT120,0.00,VWS V14.01,2013-01-19 03:34:00,
2013-01-18 23:39:00,71.8,61.9,30.06,East,91,0.0,0.0,71,0.00,,SCT120,0.00,VWS V14.01,2013-01-19 03:39:00,
2013-01-18 23:44:00,71.6,61.7,30.06,East,91,0.0,0.0,71,0.00,,SCT120,0.00,VWS V14.01,2013-01-19 03:44:00,
2013-01-18 23:49:00,71.4,62.3,30.06,East,90,0.0,0.0,73,0.00,,SCT120,0.00,VWS V14.01,2013-01-19 03:49:00,
2013-01-18 23:54:00,71.6,62.5,30.06,East,91,0.0,0.0,73,0.00,,SCT120,0.00,VWS V14.01,2013-01-19 03:54:00,
2013-01-18 23:59:00,71.6,62.9,30.06,East,91,0.0,0.0,74,0.00,,SCT120,0.00,VWS V14.01,2013-01-19 03:59:00,